Time;durP1;ratioP1;P1;durP2;ratioP2;P2;SDS_P1;SDS_P2;PMS_P1;PMS_P2;Temp;Humidity;BMP_temperature;BMP_pressure;BME280_temperature;BME280_humidity;BME280_pressure;Samples;Min_cycle;Max_cycle;Signal;HPM_P1;HPM_P2
2024/01/31 00:00:14;;;;;;;5.03;2.30;;;;;;;;;;487267;29;1087;-77
2024/01/31 00:00:31;;;;;;;4.50;2.33;;;;;;;;;;482715;29;1156;-77
2024/01/31 00:00:46;;;;;;;4.15;2.13;;;;;;;;;;484216;29;1154;-76
2024/01/31 00:01:02;;;;;;;4.00;1.80;;;;;;;;;;485225;28;1139;-77
2024/01/31 00:01:18;;;;;;;5.85;2.13;;;;;;;;;;485323;28;1293;-77
2024/01/31 00:01:35;;;;;;;6.28;2.38;;;;;;;;;;486974;28;1271;-76
2024/01/31 00:01:51;;;;;;;5.38;2.30;;;;;;;;;;487256;28;1201;-77
2024/01/31 00:02:07;;;;;;;5.20;2.25;;;;;;;;;;487366;28;1123;-77
2024/01/31 00:02:23;;;;;;;4.43;2.17;;;;;;;;;;487485;28;1324;-77
2024/01/31 00:02:38;;;;;;;4.35;2.30;;;;;;;;;;486390;28;1130;-77
2024/01/31 00:02:54;;;;;;;5.10;2.23;;;;;;;;;;485041;28;991;-77
2024/01/31 00:03:09;;;;;;;5.60;2.10;;;;;;;;;;486658;28;1336;-77
2024/01/31 00:03:25;;;;;;;5.55;2.20;;;;;;;;;;489835;28;1165;-77
2024/01/31 00:03:41;;;;;;;4.53;2.00;;;;;;;;;;488323;28;1355;-78
2024/01/31 00:03:57;;;;;;;3.55;1.90;;;;;;;;;;490357;28;1226;-77
2024/01/31 00:04:12;;;;;;;4.50;2.03;;;;;;;;;;489054;28;1068;-77
2024/01/31 00:04:28;;;;;;;5.03;2.10;;;;;;;;;;488933;28;1221;-77
2024/01/31 00:04:44;;;;;;;4.00;2.10;;;;;;;;;;487870;28;1100;-77
2024/01/31 00:05:00;;;;;;;4.32;2.00;;;;;;;;;;487496;28;1119;-77
2024/01/31 00:05:15;;;;;;;4.35;1.90;;;;;;;;;;487644;28;1321;-77
2024/01/31 00:05:31;;;;;;;4.03;1.93;;;;;;;;;;485752;28;1183;-77
2024/01/31 00:05:46;;;;;;;4.13;2.00;;;;;;;;;;485901;28;1154;-77
2024/01/31 00:06:02;;;;;;;4.38;2.13;;;;;;;;;;482672;29;1286;-77
2024/01/31 00:06:19;;;;;;;4.72;1.95;;;;;;;;;;485142;29;1081;-77
2024/01/31 00:06:35;;;;;;;4.63;1.80;;;;;;;;;;484595;28;1164;-76
2024/01/31 00:06:51;;;;;;;4.37;1.97;;;;;;;;;;483119;29;1108;-77
2024/01/31 00:07:08;;;;;;;4.50;2.10;;;;;;;;;;483836;29;1120;-77
2024/01/31 00:07:24;;;;;;;5.43;2.17;;;;;;;;;;484941;29;1242;-77
2024/01/31 00:07:41;;;;;;;5.28;2.08;;;;;;;;;;481741;29;1141;-77
2024/01/31 00:07:58;;;;;;;3.90;1.85;;;;;;;;;;486610;29;1296;-77
2024/01/31 00:08:15;;;;;;;4.00;1.90;;;;;;;;;;486950;29;1045;-77
2024/01/31 00:08:31;;;;;;;4.53;2.00;;;;;;;;;;483436;29;1108;-77
2024/01/31 00:08:47;;;;;;;4.57;2.20;;;;;;;;;;486541;28;992;-77
2024/01/31 00:09:03;;;;;;;4.10;2.17;;;;;;;;;;487642;28;1131;-77
2024/01/31 00:09:19;;;;;;;3.88;2.00;;;;;;;;;;488716;28;1139;-76
2024/01/31 00:09:36;;;;;;;3.97;2.05;;;;;;;;;;488215;28;1110;-77
2024/01/31 00:09:52;;;;;;;4.82;2.00;;;;;;;;;;488349;28;1549;-77
2024/01/31 00:10:08;;;;;;;6.57;2.03;;;;;;;;;;489307;28;1112;-77
2024/01/31 00:10:24;;;;;;;5.30;2.03;;;;;;;;;;487537;28;1081;-77
2024/01/31 00:10:41;;;;;;;4.55;2.10;;;;;;;;;;486428;28;1981;-77
2024/01/31 00:10:56;;;;;;;4.90;2.10;;;;;;;;;;487808;28;1084;-77
2024/01/31 00:11:12;;;;;;;4.10;1.90;;;;;;;;;;487320;28;1060;-77
2024/01/31 00:11:29;;;;;;;4.50;1.80;;;;;;;;;;488544;28;1210;-77
2024/01/31 00:11:45;;;;;;;4.80;2.00;;;;;;;;;;485945;28;1306;-77
2024/01/31 00:12:01;;;;;;;5.10;2.20;;;;;;;;;;486592;28;1127;-77
2024/01/31 00:12:18;;;;;;;4.43;2.17;;;;;;;;;;486142;28;1221;-77
2024/01/31 00:12:34;;;;;;;3.58;2.00;;;;;;;;;;486929;28;1111;-78
2024/01/31 00:12:50;;;;;;;4.45;2.10;;;;;;;;;;487137;28;980;-76
2024/01/31 00:13:05;;;;;;;5.38;2.10;;;;;;;;;;483344;29;1230;-77
2024/01/31 00:13:21;;;;;;;4.45;2.05;;;;;;;;;;481948;29;1206;-77
2024/01/31 00:13:37;;;;;;;3.17;1.90;;;;;;;;;;483291;28;1394;-76
2024/01/31 00:13:52;;;;;;;2.78;1.73;;;;;;;;;;485475;28;1286;-77
2024/01/31 00:14:08;;;;;;;3.50;1.90;;;;;;;;;;488554;28;1512;-78
2024/01/31 00:14:24;;;;;;;3.93;2.00;;;;;;;;;;488643;28;1088;-75
2024/01/31 00:14:39;;;;;;;4.80;2.05;;;;;;;;;;487038;28;999;-77
2024/01/31 00:14:55;;;;;;;5.05;2.10;;;;;;;;;;486927;28;1178;-77
2024/01/31 00:15:13;;;;;;;4.80;2.20;;;;;;;;;;486436;28;1272;-78
2024/01/31 00:15:29;;;;;;;5.18;2.25;;;;;;;;;;487892;28;1108;-77
2024/01/31 00:15:45;;;;;;;5.10;2.20;;;;;;;;;;489552;28;1229;-77
2024/01/31 00:16:01;;;;;;;4.65;2.17;;;;;;;;;;487895;28;1145;-77
2024/01/31 00:16:16;;;;;;;4.97;2.03;;;;;;;;;;488355;28;1261;-76
2024/01/31 00:16:40;;;;;;;5.57;2.03;;;;;;;;;;487391;28;1168;-77
2024/01/31 00:16:55;;;;;;;5.50;2.17;;;;;;;;;;490000;28;1184;-77
2024/01/31 00:17:11;;;;;;;5.15;2.03;;;;;;;;;;487288;28;1151;-77
2024/01/31 00:17:27;;;;;;;4.35;2.00;;;;;;;;;;487095;28;1196;-77
2024/01/31 00:17:43;;;;;;;6.33;2.10;;;;;;;;;;492774;28;1324;-76
2024/01/31 00:17:59;;;;;;;6.70;2.10;;;;;;;;;;489050;28;1091;-77
2024/01/31 00:18:15;;;;;;;4.75;2.10;;;;;;;;;;489351;28;1049;-77
2024/01/31 00:18:33;;;;;;;4.65;2.10;;;;;;;;;;484253;28;1186;-76
2024/01/31 00:18:51;;;;;;;4.75;1.90;;;;;;;;;;487828;28;1336;-76
2024/01/31 00:19:06;;;;;;;4.35;1.90;;;;;;;;;;482357;28;1164;-77
2024/01/31 00:19:24;;;;;;;4.00;1.83;;;;;;;;;;484010;29;1183;-77
2024/01/31 00:19:43;;;;;;;3.67;1.73;;;;;;;;;;486873;28;1399;-76
2024/01/31 00:19:59;;;;;;;2.85;1.67;;;;;;;;;;484174;29;1293;-77
2024/01/31 00:20:15;;;;;;;3.10;1.60;;;;;;;;;;482595;28;1325;-77
2024/01/31 00:20:34;;;;;;;4.25;1.83;;;;;;;;;;483275;29;1136;-76
2024/01/31 00:20:50;;;;;;;3.88;1.80;;;;;;;;;;482804;29;1342;-77
2024/01/31 00:21:05;;;;;;;4.07;1.80;;;;;;;;;;484339;29;1106;-76
2024/01/31 00:21:21;;;;;;;3.97;1.70;;;;;;;;;;481541;29;927;-77
2024/01/31 00:21:44;;;;;;;4.40;1.77;;;;;;;;;;484955;29;1153;-77
2024/01/31 00:22:00;;;;;;;4.22;1.88;;;;;;;;;;487044;28;1104;-77
2024/01/31 00:22:17;;;;;;;3.80;1.98;;;;;;;;;;486971;28;1226;-76
2024/01/31 00:22:32;;;;;;;5.13;1.98;;;;;;;;;;486873;28;1253;-76
2024/01/31 00:22:48;;;;;;;5.63;1.83;;;;;;;;;;490846;28;1230;-77
2024/01/31 00:23:06;;;;;;;4.75;1.95;;;;;;;;;;491530;28;1086;-77
2024/01/31 00:23:23;;;;;;;3.88;1.80;;;;;;;;;;485382;28;1315;-76
2024/01/31 00:23:39;;;;;;;3.22;1.58;;;;;;;;;;486088;28;1269;-76
2024/01/31 00:23:55;;;;;;;3.78;1.60;;;;;;;;;;483399;28;1256;-77
2024/01/31 00:24:13;;;;;;;5.20;1.80;;;;;;;;;;485885;28;1352;-77
2024/01/31 00:24:41;;;;;;;3.70;1.70;;;;;;;;;;485682;28;1066;-76
2024/01/31 00:24:57;;;;;;;3.67;1.58;;;;;;;;;;485802;28;1280;-76
2024/01/31 00:25:13;;;;;;;3.97;1.60;;;;;;;;;;487144;28;1097;-77
2024/01/31 00:25:30;;;;;;;3.57;1.60;;;;;;;;;;486016;28;1304;-76
2024/01/31 00:25:46;;;;;;;3.35;1.63;;;;;;;;;;487297;28;1380;-76
2024/01/31 00:26:04;;;;;;;4.00;1.63;;;;;;;;;;488413;28;1015;-77
2024/01/31 00:26:19;;;;;;;3.47;1.60;;;;;;;;;;486621;28;1242;-76
2024/01/31 00:26:41;;;;;;;2.53;1.48;;;;;;;;;;486499;28;1311;-76
2024/01/31 00:26:57;;;;;;;2.78;1.40;;;;;;;;;;486950;28;1240;-77
2024/01/31 00:27:12;;;;;;;2.63;1.23;;;;;;;;;;489429;28;1237;-76
2024/01/31 00:27:28;;;;;;;2.95;1.30;;;;;;;;;;487516;28;1229;-77
2024/01/31 00:27:45;;;;;;;2.42;1.25;;;;;;;;;;483783;29;1316;-76
2024/01/31 00:28:01;;;;;;;2.10;1.20;;;;;;;;;;486489;29;1202;-77
2024/01/31 00:28:20;;;;;;;2.67;1.33;;;;;;;;;;484843;29;1205;-76
2024/01/31 00:28:35;;;;;;;3.30;1.30;;;;;;;;;;484305;29;1139;-76
2024/01/31 00:28:51;;;;;;;3.42;1.40;;;;;;;;;;485419;29;1349;-76
2024/01/31 00:29:07;;;;;;;3.65;1.40;;;;;;;;;;488207;28;1093;-76
2024/01/31 00:29:23;;;;;;;3.53;1.35;;;;;;;;;;486730;28;1220;-77
2024/01/31 00:29:38;;;;;;;3.57;1.20;;;;;;;;;;486833;28;1138;-76
2024/01/31 00:29:54;;;;;;;3.35;1.17;;;;;;;;;;485904;28;1039;-77
2024/01/31 00:30:10;;;;;;;2.65;1.30;;;;;;;;;;487125;28;1093;-76
2024/01/31 00:30:26;;;;;;;2.50;1.27;;;;;;;;;;487937;28;2042;-77
2024/01/31 00:30:42;;;;;;;2.50;1.20;;;;;;;;;;487196;28;1074;-77
2024/01/31 00:30:58;;;;;;;2.87;1.30;;;;;;;;;;487092;28;1071;-76
2024/01/31 00:31:13;;;;;;;3.17;1.40;;;;;;;;;;484559;28;1226;-77
2024/01/31 00:31:29;;;;;;;3.28;1.42;;;;;;;;;;487947;28;1276;-76
2024/01/31 00:31:45;;;;;;;3.53;1.40;;;;;;;;;;485072;28;1194;-76
2024/01/31 00:32:01;;;;;;;4.38;1.40;;;;;;;;;;485043;28;1140;-76
2024/01/31 00:32:16;;;;;;;4.03;1.50;;;;;;;;;;485338;28;1349;-76
2024/01/31 00:32:32;;;;;;;3.63;1.63;;;;;;;;;;486812;28;1021;-76
2024/01/31 00:32:48;;;;;;;4.65;1.80;;;;;;;;;;484303;28;2270;-77
2024/01/31 00:33:04;;;;;;;4.93;1.70;;;;;;;;;;486506;28;1295;-77
2024/01/31 00:33:20;;;;;;;4.10;1.65;;;;;;;;;;489410;28;1130;-77
2024/01/31 00:33:35;;;;;;;3.17;1.60;;;;;;;;;;489202;28;1134;-76
2024/01/31 00:33:51;;;;;;;2.95;1.50;;;;;;;;;;487326;28;1132;-77
2024/01/31 00:34:07;;;;;;;4.45;1.70;;;;;;;;;;486068;28;1190;-76
2024/01/31 00:34:23;;;;;;;4.78;1.55;;;;;;;;;;486765;28;1133;-76
2024/01/31 00:34:38;;;;;;;3.57;1.43;;;;;;;;;;487222;28;1227;-76
2024/01/31 00:34:54;;;;;;;3.70;1.67;;;;;;;;;;487030;28;1276;-76
2024/01/31 00:35:10;;;;;;;3.65;1.50;;;;;;;;;;486278;28;971;-77
2024/01/31 00:35:26;;;;;;;3.25;1.33;;;;;;;;;;485493;28;1157;-76
2024/01/31 00:35:41;;;;;;;4.30;1.50;;;;;;;;;;486701;28;1078;-77
2024/01/31 00:35:57;;;;;;;4.40;1.60;;;;;;;;;;484975;28;1072;-76
2024/01/31 00:36:14;;;;;;;5.00;1.70;;;;;;;;;;484758;28;1169;-76
2024/01/31 00:36:30;;;;;;;4.38;1.80;;;;;;;;;;487344;28;1130;-76
2024/01/31 00:36:46;;;;;;;3.63;1.70;;;;;;;;;;484998;28;946;-76
2024/01/31 00:37:01;;;;;;;3.70;1.70;;;;;;;;;;484017;28;1228;-76
2024/01/31 00:37:18;;;;;;;5.18;1.90;;;;;;;;;;485498;28;989;-77
2024/01/31 00:37:34;;;;;;;5.22;1.88;;;;;;;;;;485113;28;1288;-76
2024/01/31 00:37:53;;;;;;;4.07;1.70;;;;;;;;;;486177;28;981;-76
2024/01/31 00:38:10;;;;;;;3.95;1.80;;;;;;;;;;485467;28;1085;-76
2024/01/31 00:38:26;;;;;;;4.70;1.88;;;;;;;;;;485136;28;968;-76
2024/01/31 00:38:42;;;;;;;4.35;1.80;;;;;;;;;;485084;29;1307;-77
2024/01/31 00:38:59;;;;;;;4.18;1.80;;;;;;;;;;482189;29;996;-77
2024/01/31 00:39:15;;;;;;;5.15;1.90;;;;;;;;;;483532;28;1175;-77
2024/01/31 00:39:32;;;;;;;4.22;1.95;;;;;;;;;;482023;29;1126;-76
2024/01/31 00:39:48;;;;;;;2.92;1.65;;;;;;;;;;482893;29;1130;-76
2024/01/31 00:40:05;;;;;;;3.30;1.50;;;;;;;;;;482335;29;1146;-76
2024/01/31 00:40:22;;;;;;;4.40;1.60;;;;;;;;;;483342;29;1033;-76
2024/01/31 00:40:37;;;;;;;4.18;1.70;;;;;;;;;;484562;29;1245;-76
2024/01/31 00:40:54;;;;;;;3.67;1.70;;;;;;;;;;483478;28;1146;-76
2024/01/31 00:41:11;;;;;;;4.07;1.80;;;;;;;;;;483568;28;1103;-77
2024/01/31 00:41:26;;;;;;;4.00;1.80;;;;;;;;;;482516;29;1523;-77
2024/01/31 00:41:42;;;;;;;4.33;1.90;;;;;;;;;;483266;29;1329;-76
2024/01/31 00:41:58;;;;;;;3.22;1.80;;;;;;;;;;483421;28;1059;-77
2024/01/31 00:42:14;;;;;;;2.75;1.70;;;;;;;;;;480298;29;1276;-77
2024/01/31 00:42:31;;;;;;;3.28;1.73;;;;;;;;;;482077;28;1068;-76
2024/01/31 00:42:49;;;;;;;3.95;1.80;;;;;;;;;;484024;28;1318;-76
2024/01/31 00:43:04;;;;;;;4.50;1.98;;;;;;;;;;484690;28;970;-76
2024/01/31 00:43:20;;;;;;;5.23;2.20;;;;;;;;;;485590;28;1208;-77
2024/01/31 00:43:36;;;;;;;4.40;2.00;;;;;;;;;;486984;28;1086;-76
2024/01/31 00:43:52;;;;;;;3.67;1.90;;;;;;;;;;487835;28;948;-77
2024/01/31 00:44:07;;;;;;;3.53;1.80;;;;;;;;;;487204;28;1129;-76
2024/01/31 00:44:23;;;;;;;4.23;1.87;;;;;;;;;;486168;28;1070;-76
2024/01/31 00:44:39;;;;;;;3.80;1.90;;;;;;;;;;487763;28;1155;-76
2024/01/31 00:44:55;;;;;;;2.80;1.55;;;;;;;;;;484690;28;1197;-76
2024/01/31 00:45:13;;;;;;;2.93;1.70;;;;;;;;;;486522;28;973;-76
2024/01/31 00:45:30;;;;;;;3.50;1.70;;;;;;;;;;485976;28;1136;-76
2024/01/31 00:45:46;;;;;;;3.30;1.52;;;;;;;;;;485716;28;1208;-76
2024/01/31 00:46:04;;;;;;;2.87;1.60;;;;;;;;;;482205;29;1364;-77
2024/01/31 00:46:20;;;;;;;2.97;1.50;;;;;;;;;;484127;28;1215;-76
2024/01/31 00:46:41;;;;;;;4.72;1.70;;;;;;;;;;481982;29;1358;-76
2024/01/31 00:46:57;;;;;;;4.18;1.65;;;;;;;;;;481953;29;1362;-76
2024/01/31 00:47:13;;;;;;;3.83;1.70;;;;;;;;;;485408;29;1227;-76
2024/01/31 00:47:30;;;;;;;3.63;1.70;;;;;;;;;;483084;29;1077;-76
2024/01/31 00:47:46;;;;;;;3.10;1.60;;;;;;;;;;482201;29;1573;-76
2024/01/31 00:48:02;;;;;;;2.97;1.60;;;;;;;;;;484823;28;1233;-76
2024/01/31 00:48:18;;;;;;;2.95;1.50;;;;;;;;;;487934;28;1012;-76
2024/01/31 00:48:33;;;;;;;3.38;1.50;;;;;;;;;;486468;28;1375;-76
2024/01/31 00:48:50;;;;;;;3.90;1.60;;;;;;;;;;488613;28;1024;-76
2024/01/31 00:49:08;;;;;;;4.13;1.75;;;;;;;;;;488946;28;1451;-76
2024/01/31 00:49:24;;;;;;;3.13;1.52;;;;;;;;;;485035;28;1157;-77
2024/01/31 00:49:40;;;;;;;3.03;1.60;;;;;;;;;;483839;28;1240;-76
2024/01/31 00:49:55;;;;;;;2.55;1.52;;;;;;;;;;480348;29;1110;-77
2024/01/31 00:50:12;;;;;;;2.57;1.40;;;;;;;;;;481329;29;1169;-76
2024/01/31 00:50:28;;;;;;;2.80;1.50;;;;;;;;;;481913;29;2039;-76
2024/01/31 00:50:44;;;;;;;2.10;1.30;;;;;;;;;;482094;29;1142;-76
2024/01/31 00:51:00;;;;;;;2.70;1.40;;;;;;;;;;482213;29;1153;-76
2024/01/31 00:51:15;;;;;;;3.80;1.63;;;;;;;;;;481968;29;1516;-77
2024/01/31 00:51:32;;;;;;;3.72;1.60;;;;;;;;;;484408;28;1277;-76
2024/01/31 00:51:50;;;;;;;3.40;1.40;;;;;;;;;;488214;28;1024;-76
2024/01/31 00:52:06;;;;;;;3.35;1.50;;;;;;;;;;483918;28;1162;-76
2024/01/31 00:52:22;;;;;;;3.83;1.50;;;;;;;;;;481798;28;1189;-76
2024/01/31 00:52:49;;;;;;;4.30;1.50;;;;;;;;;;483735;29;1076;-76
2024/01/31 00:53:05;;;;;;;2.85;1.60;;;;;;;;;;483493;28;1328;-76
2024/01/31 00:53:21;;;;;;;2.72;1.60;;;;;;;;;;483038;28;1264;-76
2024/01/31 00:53:37;;;;;;;2.95;1.45;;;;;;;;;;484844;29;1236;-76
2024/01/31 00:53:53;;;;;;;3.38;1.40;;;;;;;;;;483026;29;1216;-76
2024/01/31 00:54:09;;;;;;;3.20;1.40;;;;;;;;;;483782;28;1235;-76
2024/01/31 00:54:26;;;;;;;3.42;1.45;;;;;;;;;;483779;28;1337;-76
2024/01/31 00:54:42;;;;;;;2.95;1.40;;;;;;;;;;486313;29;1049;-76
2024/01/31 00:54:58;;;;;;;2.80;1.40;;;;;;;;;;481823;29;1208;-76
2024/01/31 00:55:14;;;;;;;2.70;1.30;;;;;;;;;;481685;29;1235;-76
2024/01/31 00:55:30;;;;;;;2.53;1.35;;;;;;;;;;481778;28;1312;-76
2024/01/31 00:55:45;;;;;;;3.65;1.45;;;;;;;;;;484750;29;1089;-77
2024/01/31 00:56:01;;;;;;;3.40;1.33;;;;;;;;;;482041;28;1248;-76
2024/01/31 00:56:18;;;;;;;2.83;1.27;;;;;;;;;;481310;29;1204;-78
2024/01/31 00:56:39;;;;;;;3.13;1.20;;;;;;;;;;486821;29;1097;-77
2024/01/31 00:56:55;;;;;;;2.33;1.15;;;;;;;;;;483795;28;935;-76
2024/01/31 00:57:11;;;;;;;2.60;1.27;;;;;;;;;;483853;28;1078;-77
2024/01/31 00:57:27;;;;;;;2.55;1.30;;;;;;;;;;484233;28;1135;-77
2024/01/31 00:57:44;;;;;;;2.38;1.20;;;;;;;;;;488918;28;1131;-76
2024/01/31 00:58:00;;;;;;;2.63;1.20;;;;;;;;;;483285;28;1138;-77
2024/01/31 00:58:16;;;;;;;2.75;1.27;;;;;;;;;;484274;28;1047;-77
2024/01/31 00:58:43;;;;;;;3.05;1.30;;;;;;;;;;485978;28;946;-76
2024/01/31 00:59:04;;;;;;;3.63;1.30;;;;;;;;;;482253;29;1107;-76
2024/01/31 00:59:20;;;;;;;4.03;1.27;;;;;;;;;;482612;29;1111;-76
2024/01/31 00:59:35;;;;;;;2.88;1.10;;;;;;;;;;483050;29;1118;-76
2024/01/31 00:59:53;;;;;;;2.55;1.10;;;;;;;;;;484185;28;995;-76
2024/01/31 01:00:11;;;;;;;2.80;1.00;;;;;;;;;;482818;28;1468;-76
2024/01/31 01:00:27;;;;;;;2.95;1.00;;;;;;;;;;481871;29;1121;-76
2024/01/31 01:00:43;;;;;;;3.20;1.10;;;;;;;;;;485539;29;1255;-76
2024/01/31 01:00:59;;;;;;;2.55;1.10;;;;;;;;;;484542;28;1358;-76
2024/01/31 01:01:15;;;;;;;2.28;1.00;;;;;;;;;;482996;28;1190;-76
2024/01/31 01:01:31;;;;;;;1.90;1.00;;;;;;;;;;483250;28;1306;-76
2024/01/31 01:01:47;;;;;;;2.45;1.30;;;;;;;;;;483389;29;1170;-76
2024/01/31 01:02:03;;;;;;;2.80;1.35;;;;;;;;;;481444;29;1245;-77
2024/01/31 01:02:19;;;;;;;2.53;1.30;;;;;;;;;;484908;28;1317;-76
2024/01/31 01:02:40;;;;;;;2.55;1.30;;;;;;;;;;483414;28;1169;-76
2024/01/31 01:02:55;;;;;;;2.35;1.10;;;;;;;;;;483514;28;1126;-76
2024/01/31 01:03:11;;;;;;;3.10;1.13;;;;;;;;;;481670;28;1266;-76
2024/01/31 01:03:27;;;;;;;3.00;1.10;;;;;;;;;;482836;29;1236;-76
2024/01/31 01:03:43;;;;;;;2.30;0.95;;;;;;;;;;482805;29;1163;-76
2024/01/31 01:04:02;;;;;;;2.55;1.10;;;;;;;;;;484693;28;1030;-76
2024/01/31 01:04:18;;;;;;;2.60;1.20;;;;;;;;;;486186;28;1574;-77
2024/01/31 01:04:34;;;;;;;2.55;1.27;;;;;;;;;;489008;28;2183;-76
2024/01/31 01:04:52;;;;;;;3.22;1.23;;;;;;;;;;484411;29;1469;-78
2024/01/31 01:05:09;;;;;;;3.85;1.10;;;;;;;;;;482940;29;1074;-77
2024/01/31 01:05:25;;;;;;;3.08;1.40;;;;;;;;;;481690;28;996;-77
2024/01/31 01:05:40;;;;;;;3.15;1.35;;;;;;;;;;483836;28;1305;-77
2024/01/31 01:05:56;;;;;;;3.35;1.30;;;;;;;;;;484770;28;1153;-77
2024/01/31 01:06:12;;;;;;;2.93;1.17;;;;;;;;;;483693;28;1017;-76
2024/01/31 01:06:28;;;;;;;3.10;1.13;;;;;;;;;;484584;28;1185;-77
2024/01/31 01:06:44;;;;;;;2.72;1.05;;;;;;;;;;486024;28;981;-77
2024/01/31 01:07:00;;;;;;;3.45;1.10;;;;;;;;;;483495;28;1475;-77
2024/01/31 01:07:16;;;;;;;3.13;1.10;;;;;;;;;;482172;29;1194;-76
2024/01/31 01:07:31;;;;;;;2.15;1.08;;;;;;;;;;482605;29;935;-77
2024/01/31 01:07:47;;;;;;;1.95;1.00;;;;;;;;;;485614;28;1354;-76
2024/01/31 01:08:03;;;;;;;2.27;1.00;;;;;;;;;;481713;28;1188;-76
2024/01/31 01:08:19;;;;;;;2.55;1.10;;;;;;;;;;478320;28;1217;-76
2024/01/31 01:08:35;;;;;;;2.67;1.02;;;;;;;;;;477830;28;1162;-76
2024/01/31 01:08:52;;;;;;;3.33;1.02;;;;;;;;;;478994;28;1350;-76
2024/01/31 01:09:08;;;;;;;3.22;1.20;;;;;;;;;;480226;28;1109;-77
2024/01/31 01:09:24;;;;;;;2.55;1.10;;;;;;;;;;481258;28;1370;-76
2024/01/31 01:09:40;;;;;;;2.50;1.00;;;;;;;;;;479832;28;1461;-76
2024/01/31 01:09:56;;;;;;;2.38;1.00;;;;;;;;;;478753;28;976;-77
2024/01/31 01:10:14;;;;;;;2.92;1.10;;;;;;;;;;479259;28;1405;-77
2024/01/31 01:10:30;;;;;;;2.83;1.20;;;;;;;;;;479307;28;1947;-76
2024/01/31 01:10:46;;;;;;;2.42;1.10;;;;;;;;;;479573;28;1218;-76
2024/01/31 01:11:02;;;;;;;2.73;1.20;;;;;;;;;;479088;28;1274;-76
2024/01/31 01:11:18;;;;;;;3.33;1.10;;;;;;;;;;479433;28;1069;-77
2024/01/31 01:11:34;;;;;;;3.10;0.93;;;;;;;;;;478263;28;1112;-76
2024/01/31 01:11:58;;;;;;;2.75;1.10;;;;;;;;;;478913;28;1126;-77
2024/01/31 01:12:14;;;;;;;2.05;1.00;;;;;;;;;;477848;28;1262;-77
2024/01/31 01:12:30;;;;;;;2.90;1.02;;;;;;;;;;479918;28;1194;-76
2024/01/31 01:12:46;;;;;;;2.83;1.17;;;;;;;;;;482189;28;1110;-76
2024/01/31 01:13:03;;;;;;;3.40;1.20;;;;;;;;;;480182;28;989;-76
2024/01/31 01:13:20;;;;;;;3.42;1.05;;;;;;;;;;481162;28;1094;-76
2024/01/31 01:13:35;;;;;;;3.17;1.00;;;;;;;;;;479016;28;1018;-77
2024/01/31 01:13:52;;;;;;;2.28;1.02;;;;;;;;;;478153;28;930;-77
2024/01/31 01:14:09;;;;;;;1.65;0.90;;;;;;;;;;479060;28;1720;-77
2024/01/31 01:14:26;;;;;;;2.40;0.90;;;;;;;;;;478032;28;1313;-76
2024/01/31 01:14:42;;;;;;;3.13;1.10;;;;;;;;;;478749;28;1356;-77
2024/01/31 01:14:57;;;;;;;2.58;1.00;;;;;;;;;;479002;28;1238;-77
2024/01/31 01:15:16;;;;;;;1.80;0.98;;;;;;;;;;478530;28;1106;-76
2024/01/31 01:15:33;;;;;;;2.22;1.10;;;;;;;;;;478847;28;1452;-76
2024/01/31 01:15:51;;;;;;;2.25;1.10;;;;;;;;;;475073;28;1303;-77
2024/01/31 01:16:06;;;;;;;2.50;1.00;;;;;;;;;;473569;28;1834;-77
2024/01/31 01:16:24;;;;;;;2.20;1.10;;;;;;;;;;477953;28;1161;-77
2024/01/31 01:16:39;;;;;;;2.10;1.05;;;;;;;;;;477293;28;1021;-76
2024/01/31 01:16:58;;;;;;;2.30;0.90;;;;;;;;;;475557;29;1242;-76
2024/01/31 01:17:14;;;;;;;3.25;1.00;;;;;;;;;;474684;29;1171;-77
2024/01/31 01:17:32;;;;;;;3.70;1.00;;;;;;;;;;474564;29;1252;-77
2024/01/31 01:17:47;;;;;;;2.58;1.00;;;;;;;;;;474999;29;1025;-76
2024/01/31 01:18:05;;;;;;;2.05;0.95;;;;;;;;;;475569;29;967;-77
2024/01/31 01:18:21;;;;;;;2.25;0.90;;;;;;;;;;475623;29;1461;-77
2024/01/31 01:18:36;;;;;;;2.40;0.90;;;;;;;;;;477318;28;1139;-76
2024/01/31 01:18:53;;;;;;;2.17;0.87;;;;;;;;;;478150;28;1078;-77
2024/01/31 01:19:09;;;;;;;2.53;1.00;;;;;;;;;;479159;28;1194;-76
2024/01/31 01:19:26;;;;;;;2.35;1.10;;;;;;;;;;478997;28;1134;-76
2024/01/31 01:19:42;;;;;;;2.13;1.15;;;;;;;;;;477179;29;1486;-76
2024/01/31 01:19:58;;;;;;;2.17;1.10;;;;;;;;;;475851;29;1103;-76
2024/01/31 01:20:13;;;;;;;2.28;1.05;;;;;;;;;;475179;29;1222;-76
2024/01/31 01:20:30;;;;;;;2.58;1.08;;;;;;;;;;476355;29;1151;-76
2024/01/31 01:20:46;;;;;;;2.45;0.90;;;;;;;;;;477316;29;1674;-76
2024/01/31 01:21:03;;;;;;;1.90;0.82;;;;;;;;;;477313;28;1012;-76
2024/01/31 01:21:20;;;;;;;2.03;0.90;;;;;;;;;;475431;29;1370;-76
2024/01/31 01:21:41;;;;;;;2.30;1.00;;;;;;;;;;473854;29;1384;-76
2024/01/31 01:21:56;;;;;;;2.80;1.00;;;;;;;;;;475747;28;1087;-77
2024/01/31 01:22:12;;;;;;;1.75;0.90;;;;;;;;;;475523;28;1405;-77
2024/01/31 01:22:28;;;;;;;1.35;0.80;;;;;;;;;;477598;28;1335;-78
2024/01/31 01:22:46;;;;;;;1.80;0.87;;;;;;;;;;478598;28;1169;-76
2024/01/31 01:23:02;;;;;;;2.05;1.00;;;;;;;;;;477051;28;1351;-75
2024/01/31 01:23:19;;;;;;;1.70;1.00;;;;;;;;;;477559;28;1272;-76
2024/01/31 01:23:34;;;;;;;1.58;0.90;;;;;;;;;;478065;28;1293;-76
2024/01/31 01:23:50;;;;;;;2.75;0.98;;;;;;;;;;478815;28;1023;-76
2024/01/31 01:24:06;;;;;;;2.97;1.00;;;;;;;;;;474477;29;1295;-77
2024/01/31 01:24:21;;;;;;;2.43;1.00;;;;;;;;;;476489;29;1253;-76
2024/01/31 01:24:37;;;;;;;2.10;0.90;;;;;;;;;;475230;28;1226;-76
2024/01/31 01:24:53;;;;;;;1.90;0.90;;;;;;;;;;476774;28;1272;-77
2024/01/31 01:25:10;;;;;;;2.67;1.00;;;;;;;;;;474670;29;1192;-76
2024/01/31 01:25:27;;;;;;;2.50;1.08;;;;;;;;;;476280;29;1304;-76
2024/01/31 01:25:42;;;;;;;1.75;0.95;;;;;;;;;;477727;29;1300;-77
2024/01/31 01:25:58;;;;;;;2.53;1.00;;;;;;;;;;477273;28;1090;-77
2024/01/31 01:26:15;;;;;;;2.45;0.95;;;;;;;;;;477771;28;1040;-76
2024/01/31 01:26:31;;;;;;;2.45;0.90;;;;;;;;;;478428;28;1256;-76
2024/01/31 01:26:47;;;;;;;2.22;0.95;;;;;;;;;;479342;28;899;-76
2024/01/31 01:27:03;;;;;;;1.43;0.90;;;;;;;;;;478946;28;1114;-76
2024/01/31 01:27:19;;;;;;;1.55;0.82;;;;;;;;;;481412;28;985;-76
2024/01/31 01:27:34;;;;;;;2.05;0.90;;;;;;;;;;482287;28;1094;-76
2024/01/31 01:27:50;;;;;;;2.05;1.00;;;;;;;;;;484325;28;1295;-76
2024/01/31 01:28:08;;;;;;;2.05;0.90;;;;;;;;;;480180;28;1137;-76
2024/01/31 01:28:25;;;;;;;2.65;0.90;;;;;;;;;;480363;28;1031;-76
2024/01/31 01:28:43;;;;;;;2.38;1.00;;;;;;;;;;483584;28;1113;-76
2024/01/31 01:28:59;;;;;;;2.47;0.90;;;;;;;;;;480543;28;1532;-76
2024/01/31 01:29:19;;;;;;;2.70;0.90;;;;;;;;;;479352;28;1454;-76
2024/01/31 01:29:35;;;;;;;2.20;0.90;;;;;;;;;;478139;28;1225;-76
2024/01/31 01:29:53;;;;;;;2.47;0.95;;;;;;;;;;475085;29;1413;-77
2024/01/31 01:30:09;;;;;;;2.47;0.80;;;;;;;;;;474851;29;1474;-77
2024/01/31 01:30:26;;;;;;;1.52;0.70;;;;;;;;;;476549;28;1319;-77
2024/01/31 01:30:42;;;;;;;1.92;1.00;;;;;;;;;;480196;29;2010;-76
2024/01/31 01:30:58;;;;;;;2.28;1.10;;;;;;;;;;475332;29;1146;-77
2024/01/31 01:31:15;;;;;;;2.33;1.08;;;;;;;;;;474894;29;1279;-77
2024/01/31 01:31:35;;;;;;;2.38;1.00;;;;;;;;;;477401;29;1123;-75
2024/01/31 01:31:51;;;;;;;2.38;0.93;;;;;;;;;;479694;28;1676;-77
2024/01/31 01:32:08;;;;;;;2.08;0.90;;;;;;;;;;478486;28;1284;-77
2024/01/31 01:32:24;;;;;;;1.80;0.90;;;;;;;;;;478968;28;1158;-76
2024/01/31 01:32:41;;;;;;;2.08;0.98;;;;;;;;;;479647;28;1160;-77
2024/01/31 01:32:57;;;;;;;2.58;1.00;;;;;;;;;;477470;28;967;-76
2024/01/31 01:33:13;;;;;;;1.88;0.90;;;;;;;;;;478225;28;1350;-77
2024/01/31 01:33:29;;;;;;;1.40;0.90;;;;;;;;;;478371;28;956;-77
2024/01/31 01:33:46;;;;;;;1.70;0.83;;;;;;;;;;483006;28;1392;-77
2024/01/31 01:34:03;;;;;;;1.80;0.80;;;;;;;;;;478040;28;1440;-77
2024/01/31 01:34:20;;;;;;;2.03;0.90;;;;;;;;;;479187;28;1309;-77
2024/01/31 01:34:40;;;;;;;2.28;1.10;;;;;;;;;;480951;28;1180;-76
2024/01/31 01:34:58;;;;;;;1.80;1.00;;;;;;;;;;479862;28;1093;-76
2024/01/31 01:35:14;;;;;;;1.63;0.90;;;;;;;;;;478326;28;1432;-77
2024/01/31 01:35:31;;;;;;;2.22;0.90;;;;;;;;;;479479;28;1176;-77
2024/01/31 01:35:48;;;;;;;1.98;1.00;;;;;;;;;;481198;28;1228;-77
2024/01/31 01:36:06;;;;;;;1.85;1.00;;;;;;;;;;479014;28;1449;-76
2024/01/31 01:36:23;;;;;;;2.00;0.90;;;;;;;;;;479491;28;1465;-77
2024/01/31 01:36:40;;;;;;;1.75;0.80;;;;;;;;;;480873;28;1310;-77
2024/01/31 01:36:56;;;;;;;1.88;0.80;;;;;;;;;;477603;29;1337;-77
2024/01/31 01:37:12;;;;;;;1.60;0.90;;;;;;;;;;474650;29;1392;-77
2024/01/31 01:37:28;;;;;;;1.85;1.08;;;;;;;;;;474830;29;1173;-77
2024/01/31 01:37:43;;;;;;;2.17;1.10;;;;;;;;;;476638;29;983;-77
2024/01/31 01:37:59;;;;;;;2.55;1.10;;;;;;;;;;476819;29;1140;-76
2024/01/31 01:38:15;;;;;;;2.63;1.08;;;;;;;;;;476415;28;999;-77
2024/01/31 01:38:31;;;;;;;2.75;0.90;;;;;;;;;;476972;29;1146;-76
2024/01/31 01:38:47;;;;;;;3.00;0.98;;;;;;;;;;477634;28;1175;-77
2024/01/31 01:39:03;;;;;;;2.55;1.00;;;;;;;;;;476085;29;1276;-77
2024/01/31 01:39:19;;;;;;;2.22;1.00;;;;;;;;;;475686;29;1368;-77
2024/01/31 01:39:35;;;;;;;2.05;1.02;;;;;;;;;;476482;29;1544;-77
2024/01/31 01:39:51;;;;;;;1.70;1.00;;;;;;;;;;476519;28;1260;-77
2024/01/31 01:40:08;;;;;;;2.00;1.00;;;;;;;;;;475818;29;1108;-77
2024/01/31 01:40:24;;;;;;;2.45;1.10;;;;;;;;;;477205;29;1005;-77
2024/01/31 01:40:45;;;;;;;3.92;1.13;;;;;;;;;;476124;29;1179;-77
2024/01/31 01:41:02;;;;;;;3.08;1.05;;;;;;;;;;471317;29;1265;-77
2024/01/31 01:41:18;;;;;;;2.15;1.00;;;;;;;;;;476630;29;1099;-77
2024/01/31 01:41:33;;;;;;;2.00;1.10;;;;;;;;;;475333;29;1320;-76
2024/01/31 01:41:52;;;;;;;2.03;1.10;;;;;;;;;;475152;29;901;-76
2024/01/31 01:42:08;;;;;;;1.88;1.10;;;;;;;;;;475013;29;1245;-77
2024/01/31 01:42:25;;;;;;;2.03;1.08;;;;;;;;;;474913;29;1249;-77